Time,TemperatureF,DewpointF,PressureIn,WindDirection,WindDirectionDegrees,WindSpeedMPH,WindSpeedGustMPH,Humidity,HourlyPrecipIn,Conditions,Clouds,dailyrainin,SoftwareType,DateUTC
2013-05-01 00:11:00,57.6,57.3,29.92,SW,225,0.0,-999.0,99,-99.99,,,0.00,Acu-Link.com,2013-05-01 04:11:00,
2013-05-01 00:26:00,57.6,57.3,29.92,WNW,292,1.7,-999.0,99,-99.99,,,0.00,Acu-Link.com,2013-05-01 04:26:00,
2013-05-01 00:41:00,57.6,57.3,29.92,SE,135,0.0,-999.0,99,-99.99,,,0.00,Acu-Link.com,2013-05-01 04:41:00,
2013-05-01 00:56:00,57.4,57.1,29.92,South,180,0.0,-999.0,99,-99.99,,,0.00,Acu-Link.com,2013-05-01 04:56:00,
2013-05-01 01:11:00,57.4,57.1,29.93,SE,135,1.1,-999.0,99,-99.99,,,0.00,Acu-Link.com,2013-05-01 05:11:00,
2013-05-01 01:26:00,57.2,56.9,29.93,North,0,0.0,-999.0,99,-99.99,,,0.00,Acu-Link.com,2013-05-01 05:26:00,
2013-05-01 01:42:00,57.6,57.3,29.93,SE,135,0.0,-999.0,99,-99.99,,,0.00,Acu-Link.com,2013-05-01 05:42:00,
2013-05-01 01:57:00,57.9,57.6,29.93,South,180,0.0,-999.0,99,-99.99,,,0.00,Acu-Link.com,2013-05-01 05:57:00,
2013-05-01 02:12:00,57.9,57.6,29.92,South,180,0.0,-999.0,99,-99.99,,,0.00,Acu-Link.com,2013-05-01 06:12:00,
2013-05-01 02:27:00,57.9,57.6,29.92,ESE,112,0.0,-999.0,99,-99.99,,,0.00,Acu-Link.com,2013-05-01 06:27:00,
2013-05-01 02:42:00,57.9,57.6,29.92,SE,135,0.0,-999.0,99,-99.99,,,0.00,Acu-Link.com,2013-05-01 06:42:00,
2013-05-01 02:57:00,57.7,57.4,29.92,NE,45,0.0,-999.0,99,-99.99,,,0.00,Acu-Link.com,2013-05-01 06:57:00,
2013-05-01 03:12:00,57.6,57.3,29.91,ENE,67,0.0,-999.0,99,-99.99,,,0.00,Acu-Link.com,2013-05-01 07:12:00,
2013-05-01 03:28:00,57.6,57.3,29.91,ENE,67,0.0,-999.0,99,-99.99,,,0.00,Acu-Link.com,2013-05-01 07:28:00,
2013-05-01 03:43:00,57.6,57.3,29.92,SW,225,0.0,-999.0,99,-99.99,,,0.00,Acu-Link.com,2013-05-01 07:43:00,
2013-05-01 03:58:00,57.2,56.9,29.91,NNW,337,0.0,-999.0,99,-99.99,,,0.00,Acu-Link.com,2013-05-01 07:58:00,
2013-05-01 04:13:00,57.2,56.9,29.91,East,90,0.0,-999.0,99,-99.99,,,0.00,Acu-Link.com,2013-05-01 08:13:00,
2013-05-01 04:28:00,57.0,56.7,29.91,West,270,0.0,-999.0,99,-99.99,,,0.00,Acu-Link.com,2013-05-01 08:28:00,
2013-05-01 04:43:00,56.5,56.2,29.91,North,0,0.0,-999.0,99,-99.99,,,0.00,Acu-Link.com,2013-05-01 08:43:00,
2013-05-01 04:59:00,55.9,55.6,29.91,North,0,0.0,-999.0,99,-99.99,,,0.00,Acu-Link.com,2013-05-01 08:59:00,
2013-05-01 05:14:00,55.4,55.1,29.92,ESE,112,0.0,-999.0,99,-99.99,,,0.00,Acu-Link.com,2013-05-01 09:14:00,
2013-05-01 05:29:00,55.2,54.9,29.92,SSW,202,1.7,-999.0,99,-99.99,,,0.00,Acu-Link.com,2013-05-01 09:29:00,
2013-05-01 05:44:00,54.9,54.6,29.93,ESE,112,0.0,-999.0,99,-99.99,,,0.00,Acu-Link.com,2013-05-01 09:44:00,
2013-05-01 05:59:00,54.3,54.0,29.92,NNE,22,1.1,-999.0,99,-99.99,,,0.00,Acu-Link.com,2013-05-01 09:59:00,
2013-05-01 06:14:00,54.1,53.8,29.94,ESE,112,1.1,-999.0,99,-99.99,,,0.00,Acu-Link.com,2013-05-01 10:14:00,
2013-05-01 06:29:00,53.8,53.5,29.94,SSW,202,0.0,-999.0,99,-99.99,,,0.00,Acu-Link.com,2013-05-01 10:29:00,
2013-05-01 06:44:00,53.6,53.3,29.95,North,0,0.0,-999.0,99,-99.99,,,0.00,Acu-Link.com,2013-05-01 10:44:00,
2013-05-01 06:59:00,53.4,53.1,29.95,WNW,292,0.0,-999.0,99,-99.99,,,0.00,Acu-Link.com,2013-05-01 10:59:00,
2013-05-01 07:15:00,53.8,53.5,29.95,WSW,247,0.0,-999.0,99,-99.99,,,0.00,Acu-Link.com,2013-05-01 11:15:00,
2013-05-01 07:30:00,54.3,54.0,29.96,ESE,112,0.0,-999.0,99,-99.99,,,0.00,Acu-Link.com,2013-05-01 11:30:00,
2013-05-01 07:45:00,55.0,54.7,29.96,West,270,0.0,-999.0,99,-99.99,,,0.00,Acu-Link.com,2013-05-01 11:45:00,
2013-05-01 08:00:00,56.8,56.5,29.97,NE,45,0.0,-999.0,99,-99.99,,,0.00,Acu-Link.com,2013-05-01 12:00:00,
2013-05-01 08:15:00,60.1,59.8,29.98,ESE,112,2.7,-999.0,99,-99.99,,,0.00,Acu-Link.com,2013-05-01 12:15:00,
2013-05-01 08:30:00,63.1,61.0,29.98,South,180,0.0,-999.0,93,-99.99,,,0.00,Acu-Link.com,2013-05-01 12:30:00,
2013-05-01 08:45:00,66.9,62.9,29.99,South,180,0.0,-999.0,87,-99.99,,,0.00,Acu-Link.com,2013-05-01 12:45:00,
2013-05-01 09:00:00,69.8,62.3,30.00,SSE,157,2.7,-999.0,77,-99.99,,,0.00,Acu-Link.com,2013-05-01 13:00:00,
2013-05-01 09:15:00,72.7,61.1,30.00,NW,315,1.7,-999.0,67,-99.99,,,0.00,Acu-Link.com,2013-05-01 13:15:00,
2013-05-01 09:31:00,77.0,59.6,30.01,East,90,1.7,-999.0,55,-99.99,,,0.00,Acu-Link.com,2013-05-01 13:31:00,
2013-05-01 09:46:00,77.7,58.7,30.00,East,90,3.7,-999.0,52,-99.99,,,0.00,Acu-Link.com,2013-05-01 13:46:00,
2013-05-01 10:01:00,79.2,58.4,30.00,NNE,22,2.7,-999.0,49,-99.99,,,0.00,Acu-Link.com,2013-05-01 14:01:00,
2013-05-01 10:16:00,73.2,56.5,29.99,ESE,112,1.7,-999.0,56,-99.99,,,0.00,Acu-Link.com,2013-05-01 14:16:00,
2013-05-01 10:31:00,70.5,57.7,30.00,NNW,337,0.0,-999.0,64,-99.99,,,0.00,Acu-Link.com,2013-05-01 14:31:00,
2013-05-01 10:46:00,72.5,57.3,30.00,NE,45,4.7,-999.0,59,-99.99,,,0.00,Acu-Link.com,2013-05-01 14:46:00,
2013-05-01 11:01:00,72.7,58.0,30.00,East,90,4.2,-999.0,60,-99.99,,,0.00,Acu-Link.com,2013-05-01 15:01:00,
2013-05-01 11:17:00,73.0,57.3,30.01,NE,45,3.7,-999.0,58,-99.99,,,0.00,Acu-Link.com,2013-05-01 15:17:00,
2013-05-01 11:32:00,74.1,57.4,30.00,NE,45,4.7,-999.0,56,-99.99,,,0.00,Acu-Link.com,2013-05-01 15:32:00,
2013-05-01 11:47:00,74.3,59.5,29.99,NW,315,4.7,-999.0,60,-99.99,,,0.00,Acu-Link.com,2013-05-01 15:47:00,
2013-05-01 12:02:00,73.4,59.1,30.00,WNW,292,2.7,-999.0,61,-99.99,,,0.00,Acu-Link.com,2013-05-01 16:02:00,
2013-05-01 12:17:00,73.2,58.0,29.99,NNW,337,2.2,-999.0,59,-99.99,,,0.00,Acu-Link.com,2013-05-01 16:17:00,
2013-05-01 12:32:00,74.3,58.6,29.98,WNW,292,3.7,-999.0,58,-99.99,,,0.00,Acu-Link.com,2013-05-01 16:32:00,
2013-05-01 12:47:00,75.4,61.0,29.99,NW,315,2.2,-999.0,61,-99.99,,,0.00,Acu-Link.com,2013-05-01 16:47:00,
2013-05-01 13:02:00,75.2,58.9,29.98,NNW,337,1.1,-999.0,57,-99.99,,,0.00,Acu-Link.com,2013-05-01 17:02:00,
2013-05-01 13:17:00,76.3,56.8,29.99,SSE,157,0.0,-999.0,51,-99.99,,,0.00,Acu-Link.com,2013-05-01 17:17:00,
2013-05-01 13:33:00,76.1,58.2,29.98,WNW,292,2.2,-999.0,54,-99.99,,,0.00,Acu-Link.com,2013-05-01 17:33:00,
2013-05-01 13:48:00,76.6,59.2,29.98,WNW,292,2.2,-999.0,55,-99.99,,,0.00,Acu-Link.com,2013-05-01 17:48:00,
2013-05-01 14:03:00,76.6,57.1,29.98,SSW,202,2.7,-999.0,51,-99.99,,,0.00,Acu-Link.com,2013-05-01 18:03:00,
2013-05-01 14:18:00,75.7,56.8,29.98,NNE,22,1.7,-999.0,52,-99.99,,,0.00,Acu-Link.com,2013-05-01 18:18:00,
2013-05-01 14:33:00,74.7,58.4,29.98,ENE,67,2.2,-999.0,57,-99.99,,,0.00,Acu-Link.com,2013-05-01 18:33:00,
2013-05-01 14:48:00,75.0,57.7,29.98,SSE,157,1.1,-999.0,55,-99.99,,,0.00,Acu-Link.com,2013-05-01 18:48:00,
2013-05-01 15:03:00,77.2,58.2,29.98,South,180,1.7,-999.0,52,-99.99,,,0.00,Acu-Link.com,2013-05-01 19:03:00,
2013-05-01 15:18:00,75.9,58.6,29.96,NE,45,2.2,-999.0,55,-99.99,,,0.00,Acu-Link.com,2013-05-01 19:18:00,
2013-05-01 15:33:00,76.5,61.1,29.96,ESE,112,1.1,-999.0,59,-99.99,,,0.00,Acu-Link.com,2013-05-01 19:33:00,
2013-05-01 15:49:00,77.0,60.1,29.95,NNW,337,2.2,-999.0,56,-99.99,,,0.00,Acu-Link.com,2013-05-01 19:49:00,
2013-05-01 16:04:00,77.0,59.6,29.95,South,180,1.7,-999.0,55,-99.99,,,0.00,Acu-Link.com,2013-05-01 20:04:00,
2013-05-01 16:19:00,76.6,59.7,29.94,West,270,2.2,-999.0,56,-99.99,,,0.00,Acu-Link.com,2013-05-01 20:19:00,
2013-05-01 16:34:00,75.9,61.0,29.95,NNW,337,3.2,-999.0,60,-99.99,,,0.00,Acu-Link.com,2013-05-01 20:34:00,
2013-05-01 16:49:00,75.4,61.5,29.94,South,180,3.7,-999.0,62,-99.99,,,0.00,Acu-Link.com,2013-05-01 20:49:00,
2013-05-01 17:04:00,75.4,60.5,29.94,SSW,202,3.2,-999.0,60,-99.99,,,0.00,Acu-Link.com,2013-05-01 21:04:00,
2013-05-01 17:20:00,75.0,60.2,29.94,East,90,0.0,-999.0,60,-99.99,,,0.00,Acu-Link.com,2013-05-01 21:20:00,
2013-05-01 17:35:00,74.3,60.4,29.94,ESE,112,2.7,-999.0,62,-99.99,,,0.00,Acu-Link.com,2013-05-01 21:35:00,
2013-05-01 17:50:00,73.8,60.0,29.94,SSW,202,0.0,-999.0,62,-99.99,,,0.00,Acu-Link.com,2013-05-01 21:50:00,
2013-05-01 18:05:00,74.1,60.2,29.94,SSW,202,2.2,-999.0,62,-99.99,,,0.00,Acu-Link.com,2013-05-01 22:05:00,
2013-05-01 18:20:00,73.9,59.6,29.94,South,180,1.1,-999.0,61,-99.99,,,0.00,Acu-Link.com,2013-05-01 22:20:00,
2013-05-01 18:35:00,74.8,60.9,29.94,SSW,202,2.7,-999.0,62,-99.99,,,0.00,Acu-Link.com,2013-05-01 22:35:00,
2013-05-01 18:50:00,74.8,60.0,29.93,ENE,67,0.0,-999.0,60,-99.99,,,0.00,Acu-Link.com,2013-05-01 22:50:00,
2013-05-01 19:05:00,73.9,61.8,29.94,ESE,112,0.0,-999.0,66,-99.99,,,0.00,Acu-Link.com,2013-05-01 23:05:00,
2013-05-01 19:20:00,73.0,61.0,29.94,SSE,157,0.0,-999.0,66,-99.99,,,0.00,Acu-Link.com,2013-05-01 23:20:00,
2013-05-01 19:35:00,72.3,60.3,29.94,SE,135,1.1,-999.0,66,-99.99,,,0.00,Acu-Link.com,2013-05-01 23:35:00,
2013-05-01 19:51:00,71.1,60.8,29.94,ESE,112,0.0,-999.0,70,-99.99,,,0.00,Acu-Link.com,2013-05-01 23:51:00,
2013-05-01 20:06:00,70.2,61.5,29.95,SE,135,0.0,-999.0,74,-99.99,,,0.00,Acu-Link.com,2013-05-02 00:06:00,
2013-05-01 20:21:00,68.2,61.1,29.95,SE,135,0.0,-999.0,78,-99.99,,,0.00,Acu-Link.com,2013-05-02 00:21:00,
2013-05-01 20:37:00,66.9,61.9,29.96,ESE,112,1.7,-999.0,84,-99.99,,,0.00,Acu-Link.com,2013-05-02 00:37:00,
2013-05-01 20:52:00,65.7,61.1,29.95,East,90,0.0,-999.0,85,-99.99,,,0.00,Acu-Link.com,2013-05-02 00:52:00,
2013-05-01 21:07:00,64.8,60.5,29.96,ESE,112,0.0,-999.0,86,-99.99,,,0.00,Acu-Link.com,2013-05-02 01:07:00,
2013-05-01 21:22:00,63.7,60.4,29.97,SE,135,0.0,-999.0,89,-99.99,,,0.00,Acu-Link.com,2013-05-02 01:22:00,
2013-05-01 21:38:00,63.1,59.8,29.97,SSE,157,0.0,-999.0,89,-99.99,,,0.00,Acu-Link.com,2013-05-02 01:38:00,
2013-05-01 21:53:00,62.6,59.9,29.98,SW,225,0.0,-999.0,91,-99.99,,,0.00,Acu-Link.com,2013-05-02 01:53:00,
2013-05-01 22:08:00,62.4,60.0,29.98,South,180,1.7,-999.0,92,-99.99,,,0.00,Acu-Link.com,2013-05-02 02:08:00,
2013-05-01 22:23:00,62.1,59.4,29.99,ESE,112,0.0,-999.0,91,-99.99,,,0.00,Acu-Link.com,2013-05-02 02:23:00,
2013-05-01 22:38:00,62.1,59.4,30.00,ESE,112,1.7,-999.0,91,-99.99,,,0.00,Acu-Link.com,2013-05-02 02:38:00,
2013-05-01 22:53:00,61.9,58.9,30.00,NNW,337,0.0,-999.0,90,-99.99,,,0.00,Acu-Link.com,2013-05-02 02:53:00,
2013-05-01 23:09:00,61.5,59.5,30.00,East,90,0.0,-999.0,93,-99.99,,,0.00,Acu-Link.com,2013-05-02 03:09:00,
2013-05-01 23:24:00,60.6,58.6,30.00,East,90,0.0,-999.0,93,-99.99,,,0.00,Acu-Link.com,2013-05-02 03:24:00,
2013-05-01 23:39:00,60.4,59.0,30.00,South,180,1.1,-999.0,95,-99.99,,,0.00,Acu-Link.com,2013-05-02 03:39:00,
2013-05-01 23:54:00,60.1,59.0,30.00,West,270,1.7,-999.0,96,-99.99,,,0.00,Acu-Link.com,2013-05-02 03:54:00,